sensor_id;sensor_type;location;lat;lon;timestamp;temperature;humidity
17033;DHT22;63208;52.178;21.016;2023-07-16T00:00:14;23.20;99.90
17033;DHT22;63208;52.178;21.016;2023-07-16T00:02:44;23.10;99.90
17033;DHT22;63208;52.178;21.016;2023-07-16T00:05:11;23.10;99.90
17033;DHT22;63208;52.178;21.016;2023-07-16T00:07:38;23.00;99.90
17033;DHT22;63208;52.178;21.016;2023-07-16T00:10:05;23.00;99.90
17033;DHT22;63208;52.178;21.016;2023-07-16T00:12:32;23.00;99.90
17033;DHT22;63208;52.178;21.016;2023-07-16T00:14:59;22.90;99.90
17033;DHT22;63208;52.178;21.016;2023-07-16T00:17:27;22.90;99.90
17033;DHT22;63208;52.178;21.016;2023-07-16T00:19:54;22.90;99.90
17033;DHT22;63208;52.178;21.016;2023-07-16T00:22:21;22.90;99.90
17033;DHT22;63208;52.178;21.016;2023-07-16T00:24:48;22.80;99.90
17033;DHT22;63208;52.178;21.016;2023-07-16T00:27:15;22.80;99.90
17033;DHT22;63208;52.178;21.016;2023-07-16T00:29:42;22.70;99.90
17033;DHT22;63208;52.178;21.016;2023-07-16T00:32:09;22.70;99.90
17033;DHT22;63208;52.178;21.016;2023-07-16T00:34:37;22.70;99.90
17033;DHT22;63208;52.178;21.016;2023-07-16T00:37:04;22.60;99.90
17033;DHT22;63208;52.178;21.016;2023-07-16T00:39:31;22.60;99.90
17033;DHT22;63208;52.178;21.016;2023-07-16T00:41:58;22.60;99.90
17033;DHT22;63208;52.178;21.016;2023-07-16T00:44:25;22.60;99.90
17033;DHT22;63208;52.178;21.016;2023-07-16T00:46:52;22.50;99.90
17033;DHT22;63208;52.178;21.016;2023-07-16T00:49:19;22.50;99.90
17033;DHT22;63208;52.178;21.016;2023-07-16T00:51:47;22.50;99.90
17033;DHT22;63208;52.178;21.016;2023-07-16T00:54:14;22.40;99.90
17033;DHT22;63208;52.178;21.016;2023-07-16T00:56:41;22.40;99.90
17033;DHT22;63208;52.178;21.016;2023-07-16T00:59:08;22.30;99.90
17033;DHT22;63208;52.178;21.016;2023-07-16T01:01:35;22.30;99.90
17033;DHT22;63208;52.178;21.016;2023-07-16T01:04:02;22.20;99.90
17033;DHT22;63208;52.178;21.016;2023-07-16T01:06:33;22.10;99.90
17033;DHT22;63208;52.178;21.016;2023-07-16T01:09:06;22.10;99.90
17033;DHT22;63208;52.178;21.016;2023-07-16T01:21:23;22.00;99.90
17033;DHT22;63208;52.178;21.016;2023-07-16T02:13:53;21.70;99.90
17033;DHT22;63208;52.178;21.016;2023-07-16T02:24:33;21.50;99.90
17033;DHT22;63208;52.178;21.016;2023-07-16T02:27:01;21.50;99.90
17033;DHT22;63208;52.178;21.016;2023-07-16T02:29:31;21.50;99.90
17033;DHT22;63208;52.178;21.016;2023-07-16T02:31:58;21.50;99.90
17033;DHT22;63208;52.178;21.016;2023-07-16T02:34:25;21.50;99.90
17033;DHT22;63208;52.178;21.016;2023-07-16T02:36:52;21.50;99.90
17033;DHT22;63208;52.178;21.016;2023-07-16T02:39:19;21.50;99.90
17033;DHT22;63208;52.178;21.016;2023-07-16T02:48:04;21.30;99.90
17033;DHT22;63208;52.178;21.016;2023-07-16T02:50:37;21.40;99.90
17033;DHT22;63208;52.178;21.016;2023-07-16T02:53:04;21.40;99.90
17033;DHT22;63208;52.178;21.016;2023-07-16T02:55:32;21.40;99.90
17033;DHT22;63208;52.178;21.016;2023-07-16T02:57:59;21.40;99.90
17033;DHT22;63208;52.178;21.016;2023-07-16T03:00:30;21.30;99.90
17033;DHT22;63208;52.178;21.016;2023-07-16T03:02:57;21.30;99.90
17033;DHT22;63208;52.178;21.016;2023-07-16T03:05:26;21.30;99.90
17033;DHT22;63208;52.178;21.016;2023-07-16T03:07:53;21.20;99.90
17033;DHT22;63208;52.178;21.016;2023-07-16T03:10:21;21.20;99.90
17033;DHT22;63208;52.178;21.016;2023-07-16T03:12:48;21.10;99.90
17033;DHT22;63208;52.178;21.016;2023-07-16T03:15:15;21.20;99.90
17033;DHT22;63208;52.178;21.016;2023-07-16T03:17:41;21.10;99.90
17033;DHT22;63208;52.178;21.016;2023-07-16T03:20:09;21.20;99.90
17033;DHT22;63208;52.178;21.016;2023-07-16T03:22:37;21.10;99.90
17033;DHT22;63208;52.178;21.016;2023-07-16T03:25:05;21.10;99.90
17033;DHT22;63208;52.178;21.016;2023-07-16T03:27:33;21.10;99.90
17033;DHT22;63208;52.178;21.016;2023-07-16T03:30:00;21.10;99.90
17033;DHT22;63208;52.178;21.016;2023-07-16T03:32:27;21.20;99.90
17033;DHT22;63208;52.178;21.016;2023-07-16T03:34:54;21.10;99.90
17033;DHT22;63208;52.178;21.016;2023-07-16T03:37:21;21.10;99.90
17033;DHT22;63208;52.178;21.016;2023-07-16T03:39:49;21.10;99.90
17033;DHT22;63208;52.178;21.016;2023-07-16T03:42:16;21.00;99.90
17033;DHT22;63208;52.178;21.016;2023-07-16T03:44:43;21.10;99.90
17033;DHT22;63208;52.178;21.016;2023-07-16T03:47:11;21.10;99.90
17033;DHT22;63208;52.178;21.016;2023-07-16T03:49:38;21.10;99.90
17033;DHT22;63208;52.178;21.016;2023-07-16T03:52:06;21.10;99.90
17033;DHT22;63208;52.178;21.016;2023-07-16T03:54:33;21.10;99.90
17033;DHT22;63208;52.178;21.016;2023-07-16T03:57:01;21.00;99.90
17033;DHT22;63208;52.178;21.016;2023-07-16T03:59:28;21.10;99.90
17033;DHT22;63208;52.178;21.016;2023-07-16T04:01:55;21.20;99.90
17033;DHT22;63208;52.178;21.016;2023-07-16T04:04:22;21.20;99.90
17033;DHT22;63208;52.178;21.016;2023-07-16T04:06:49;21.30;99.90
17033;DHT22;63208;52.178;21.016;2023-07-16T04:09:16;21.30;99.90
17033;DHT22;63208;52.178;21.016;2023-07-16T04:11:43;21.30;99.90
17033;DHT22;63208;52.178;21.016;2023-07-16T04:14:11;21.40;99.90
17033;DHT22;63208;52.178;21.016;2023-07-16T04:16:38;21.40;99.90
17033;DHT22;63208;52.178;21.016;2023-07-16T04:19:05;21.50;99.90
17033;DHT22;63208;52.178;21.016;2023-07-16T04:21:32;21.50;99.90
17033;DHT22;63208;52.178;21.016;2023-07-16T04:23:59;21.60;99.90
17033;DHT22;63208;52.178;21.016;2023-07-16T04:26:26;21.70;99.90
17033;DHT22;63208;52.178;21.016;2023-07-16T04:28:53;21.70;99.90
17033;DHT22;63208;52.178;21.016;2023-07-16T04:31:22;21.70;99.90
17033;DHT22;63208;52.178;21.016;2023-07-16T04:33:49;21.80;99.90
17033;DHT22;63208;52.178;21.016;2023-07-16T04:36:16;21.80;99.90
17033;DHT22;63208;52.178;21.016;2023-07-16T04:38:43;21.90;99.90
17033;DHT22;63208;52.178;21.016;2023-07-16T04:41:09;21.90;99.90
17033;DHT22;63208;52.178;21.016;2023-07-16T04:43:38;21.90;99.90
17033;DHT22;63208;52.178;21.016;2023-07-16T04:46:05;22.00;99.90
17033;DHT22;63208;52.178;21.016;2023-07-16T04:48:33;22.00;99.90
17033;DHT22;63208;52.178;21.016;2023-07-16T04:51:00;22.00;99.90
17033;DHT22;63208;52.178;21.016;2023-07-16T04:53:27;22.10;99.90
17033;DHT22;63208;52.178;21.016;2023-07-16T04:55:54;22.10;99.90
17033;DHT22;63208;52.178;21.016;2023-07-16T04:58:22;22.20;99.90
17033;DHT22;63208;52.178;21.016;2023-07-16T05:00:49;22.30;99.90
17033;DHT22;63208;52.178;21.016;2023-07-16T05:03:16;22.30;99.90
17033;DHT22;63208;52.178;21.016;2023-07-16T05:05:45;22.30;99.90
17033;DHT22;63208;52.178;21.016;2023-07-16T05:08:12;22.30;99.90
17033;DHT22;63208;52.178;21.016;2023-07-16T05:10:38;22.40;99.90
17033;DHT22;63208;52.178;21.016;2023-07-16T05:13:05;22.50;99.90
17033;DHT22;63208;52.178;21.016;2023-07-16T05:15:32;22.50;99.90
17033;DHT22;63208;52.178;21.016;2023-07-16T05:17:59;22.50;99.90
17033;DHT22;63208;52.178;21.016;2023-07-16T05:20:26;22.60;99.90
17033;DHT22;63208;52.178;21.016;2023-07-16T05:22:54;22.70;99.90
17033;DHT22;63208;52.178;21.016;2023-07-16T05:25:21;22.70;99.90
17033;DHT22;63208;52.178;21.016;2023-07-16T05:27:48;22.80;99.90
17033;DHT22;63208;52.178;21.016;2023-07-16T05:30:15;22.80;99.90
17033;DHT22;63208;52.178;21.016;2023-07-16T05:32:42;22.90;99.90
17033;DHT22;63208;52.178;21.016;2023-07-16T05:35:09;22.90;99.90
17033;DHT22;63208;52.178;21.016;2023-07-16T05:37:36;23.00;99.90
17033;DHT22;63208;52.178;21.016;2023-07-16T05:40:06;23.00;99.90
17033;DHT22;63208;52.178;21.016;2023-07-16T05:42:34;23.10;99.90
17033;DHT22;63208;52.178;21.016;2023-07-16T05:45:01;23.20;99.90
17033;DHT22;63208;52.178;21.016;2023-07-16T05:47:28;23.30;99.90
17033;DHT22;63208;52.178;21.016;2023-07-16T05:49:55;23.30;99.90
17033;DHT22;63208;52.178;21.016;2023-07-16T05:52:22;23.40;99.90
17033;DHT22;63208;52.178;21.016;2023-07-16T05:54:48;23.50;99.90
17033;DHT22;63208;52.178;21.016;2023-07-16T05:57:17;23.60;99.90
17033;DHT22;63208;52.178;21.016;2023-07-16T06:15:48;24.00;99.90
17033;DHT22;63208;52.178;21.016;2023-07-16T06:18:15;24.10;99.90
17033;DHT22;63208;52.178;21.016;2023-07-16T06:20:43;24.10;99.90
17033;DHT22;63208;52.178;21.016;2023-07-16T06:23:10;24.10;99.90
17033;DHT22;63208;52.178;21.016;2023-07-16T06:25:37;24.20;99.90
17033;DHT22;63208;52.178;21.016;2023-07-16T06:28:06;24.30;99.90
17033;DHT22;63208;52.178;21.016;2023-07-16T06:30:33;24.30;99.90
17033;DHT22;63208;52.178;21.016;2023-07-16T06:33:01;24.30;99.90
17033;DHT22;63208;52.178;21.016;2023-07-16T06:35:28;24.40;99.90
17033;DHT22;63208;52.178;21.016;2023-07-16T06:37:55;24.40;99.90
17033;DHT22;63208;52.178;21.016;2023-07-16T06:40:23;24.50;99.90
17033;DHT22;63208;52.178;21.016;2023-07-16T06:42:50;24.50;99.90
17033;DHT22;63208;52.178;21.016;2023-07-16T06:45:17;24.70;99.90
17033;DHT22;63208;52.178;21.016;2023-07-16T06:47:44;24.80;99.90
17033;DHT22;63208;52.178;21.016;2023-07-16T06:50:12;24.90;99.90
17033;DHT22;63208;52.178;21.016;2023-07-16T06:52:39;24.90;99.90
17033;DHT22;63208;52.178;21.016;2023-07-16T06:55:07;25.00;99.90
17033;DHT22;63208;52.178;21.016;2023-07-16T06:57:34;25.10;99.90
17033;DHT22;63208;52.178;21.016;2023-07-16T07:00:01;25.20;99.90
17033;DHT22;63208;52.178;21.016;2023-07-16T07:02:28;25.10;99.90
17033;DHT22;63208;52.178;21.016;2023-07-16T07:04:55;25.20;99.90
17033;DHT22;63208;52.178;21.016;2023-07-16T07:07:25;25.40;99.90
17033;DHT22;63208;52.178;21.016;2023-07-16T07:09:52;25.70;99.90
17033;DHT22;63208;52.178;21.016;2023-07-16T07:12:19;25.80;99.90
17033;DHT22;63208;52.178;21.016;2023-07-16T07:14:46;26.00;99.90
17033;DHT22;63208;52.178;21.016;2023-07-16T07:17:13;26.00;99.90
17033;DHT22;63208;52.178;21.016;2023-07-16T07:19:42;26.10;99.90
17033;DHT22;63208;52.178;21.016;2023-07-16T07:22:09;26.20;99.90
17033;DHT22;63208;52.178;21.016;2023-07-16T07:24:37;26.40;99.90
17033;DHT22;63208;52.178;21.016;2023-07-16T07:27:05;26.50;99.90
17033;DHT22;63208;52.178;21.016;2023-07-16T07:29:32;26.30;99.90
17033;DHT22;63208;52.178;21.016;2023-07-16T07:31:59;26.40;99.90
17033;DHT22;63208;52.178;21.016;2023-07-16T07:34:29;26.90;99.90
17033;DHT22;63208;52.178;21.016;2023-07-16T07:36:57;26.40;99.90
17033;DHT22;63208;52.178;21.016;2023-07-16T07:39:24;26.50;99.90
17033;DHT22;63208;52.178;21.016;2023-07-16T07:41:52;26.50;99.90
17033;DHT22;63208;52.178;21.016;2023-07-16T07:44:19;26.40;99.90
17033;DHT22;63208;52.178;21.016;2023-07-16T07:46:46;26.50;99.90
17033;DHT22;63208;52.178;21.016;2023-07-16T07:49:13;26.40;99.90
17033;DHT22;63208;52.178;21.016;2023-07-16T07:51:40;26.50;99.90
17033;DHT22;63208;52.178;21.016;2023-07-16T07:54:07;26.50;99.90
17033;DHT22;63208;52.178;21.016;2023-07-16T07:56:34;26.90;99.90
17033;DHT22;63208;52.178;21.016;2023-07-16T07:59:02;27.10;99.90
17033;DHT22;63208;52.178;21.016;2023-07-16T08:01:30;27.40;99.90
17033;DHT22;63208;52.178;21.016;2023-07-16T08:03:57;27.50;99.90
17033;DHT22;63208;52.178;21.016;2023-07-16T08:06:24;27.40;99.90
17033;DHT22;63208;52.178;21.016;2023-07-16T08:08:51;27.30;99.90
17033;DHT22;63208;52.178;21.016;2023-07-16T08:11:18;27.40;99.90
17033;DHT22;63208;52.178;21.016;2023-07-16T08:13:45;27.80;99.90
17033;DHT22;63208;52.178;21.016;2023-07-16T08:16:14;27.90;99.90
17033;DHT22;63208;52.178;21.016;2023-07-16T08:18:41;27.80;99.90
17033;DHT22;63208;52.178;21.016;2023-07-16T08:21:08;27.80;99.90
17033;DHT22;63208;52.178;21.016;2023-07-16T08:23:35;28.00;99.90
17033;DHT22;63208;52.178;21.016;2023-07-16T08:26:02;27.90;99.90
17033;DHT22;63208;52.178;21.016;2023-07-16T08:28:29;27.90;99.90
17033;DHT22;63208;52.178;21.016;2023-07-16T08:30:56;28.10;99.90
17033;DHT22;63208;52.178;21.016;2023-07-16T08:33:24;28.20;99.90
17033;DHT22;63208;52.178;21.016;2023-07-16T08:35:51;28.20;99.90
17033;DHT22;63208;52.178;21.016;2023-07-16T08:38:18;28.40;99.90
17033;DHT22;63208;52.178;21.016;2023-07-16T08:40:47;28.20;99.90
17033;DHT22;63208;52.178;21.016;2023-07-16T08:45:44;28.80;99.90
17033;DHT22;63208;52.178;21.016;2023-07-16T08:48:12;28.90;99.90
17033;DHT22;63208;52.178;21.016;2023-07-16T08:50:42;28.90;99.90
17033;DHT22;63208;52.178;21.016;2023-07-16T08:53:08;29.00;99.90
17033;DHT22;63208;52.178;21.016;2023-07-16T08:55:35;29.20;99.90
17033;DHT22;63208;52.178;21.016;2023-07-16T08:58:04;29.30;99.90
17033;DHT22;63208;52.178;21.016;2023-07-16T09:00:32;29.20;99.90
17033;DHT22;63208;52.178;21.016;2023-07-16T09:06:57;29.60;99.90
17033;DHT22;63208;52.178;21.016;2023-07-16T09:20:24;31.30;99.90
17033;DHT22;63208;52.178;21.016;2023-07-16T09:22:54;30.00;99.90
17033;DHT22;63208;52.178;21.016;2023-07-16T09:27:52;30.10;99.90
17033;DHT22;63208;52.178;21.016;2023-07-16T09:30:20;30.20;99.90
17033;DHT22;63208;52.178;21.016;2023-07-16T09:32:46;30.20;99.90
17033;DHT22;63208;52.178;21.016;2023-07-16T09:35:14;30.10;99.90
17033;DHT22;63208;52.178;21.016;2023-07-16T09:37:42;30.10;99.90
17033;DHT22;63208;52.178;21.016;2023-07-16T09:40:11;30.10;99.90
17033;DHT22;63208;52.178;21.016;2023-07-16T09:45:07;30.70;99.90
17033;DHT22;63208;52.178;21.016;2023-07-16T09:47:34;30.70;99.90
17033;DHT22;63208;52.178;21.016;2023-07-16T09:53:19;30.70;99.90
17033;DHT22;63208;52.178;21.016;2023-07-16T09:56:52;30.90;99.90
17033;DHT22;63208;52.178;21.016;2023-07-16T09:59:24;31.10;99.90
17033;DHT22;63208;52.178;21.016;2023-07-16T10:01:52;31.00;99.90
17033;DHT22;63208;52.178;21.016;2023-07-16T10:09:39;31.30;99.90
17033;DHT22;63208;52.178;21.016;2023-07-16T10:12:14;31.30;99.20
17033;DHT22;63208;52.178;21.016;2023-07-16T10:14:43;31.50;98.90
17033;DHT22;63208;52.178;21.016;2023-07-16T10:17:14;31.70;98.80
17033;DHT22;63208;52.178;21.016;2023-07-16T10:19:49;31.90;98.90
17033;DHT22;63208;52.178;21.016;2023-07-16T10:22:17;31.90;99.00
17033;DHT22;63208;52.178;21.016;2023-07-16T10:24:44;31.80;98.30
17033;DHT22;63208;52.178;21.016;2023-07-16T10:27:15;31.80;98.00
17033;DHT22;63208;52.178;21.016;2023-07-16T10:29:52;31.60;98.50
17033;DHT22;63208;52.178;21.016;2023-07-16T10:32:20;31.50;98.10
17033;DHT22;63208;52.178;21.016;2023-07-16T10:34:47;31.30;98.00
17033;DHT22;63208;52.178;21.016;2023-07-16T10:37:14;31.30;98.50
17033;DHT22;63208;52.178;21.016;2023-07-16T10:39:46;31.30;98.70
17033;DHT22;63208;52.178;21.016;2023-07-16T10:42:16;31.30;98.60
17033;DHT22;63208;52.178;21.016;2023-07-16T10:44:43;31.30;99.60
17033;DHT22;63208;52.178;21.016;2023-07-16T10:47:18;31.40;99.90
17033;DHT22;63208;52.178;21.016;2023-07-16T10:49:46;31.30;99.90
17033;DHT22;63208;52.178;21.016;2023-07-16T10:52:13;31.40;99.90
17033;DHT22;63208;52.178;21.016;2023-07-16T10:54:40;31.40;99.90
17033;DHT22;63208;52.178;21.016;2023-07-16T10:57:07;31.30;99.90
17033;DHT22;63208;52.178;21.016;2023-07-16T10:59:38;31.20;99.90
17033;DHT22;63208;52.178;21.016;2023-07-16T11:02:08;31.20;99.90
17033;DHT22;63208;52.178;21.016;2023-07-16T11:04:37;31.40;99.90
17033;DHT22;63208;52.178;21.016;2023-07-16T11:07:05;31.60;99.90
17033;DHT22;63208;52.178;21.016;2023-07-16T11:09:33;31.60;99.90
17033;DHT22;63208;52.178;21.016;2023-07-16T11:14:39;32.00;99.90
17033;DHT22;63208;52.178;21.016;2023-07-16T11:17:07;31.90;99.90
17033;DHT22;63208;52.178;21.016;2023-07-16T11:19:34;32.00;99.90
17033;DHT22;63208;52.178;21.016;2023-07-16T11:22:11;32.10;99.90
17033;DHT22;63208;52.178;21.016;2023-07-16T11:24:45;32.10;99.90
17033;DHT22;63208;52.178;21.016;2023-07-16T11:27:16;32.20;99.90
17033;DHT22;63208;52.178;21.016;2023-07-16T11:29:49;32.00;99.00
17033;DHT22;63208;52.178;21.016;2023-07-16T11:32:27;31.90;98.70
17033;DHT22;63208;52.178;21.016;2023-07-16T11:34:55;32.10;97.80
17033;DHT22;63208;52.178;21.016;2023-07-16T11:43:24;32.00;99.90
17033;DHT22;63208;52.178;21.016;2023-07-16T11:48:19;31.90;98.00
17033;DHT22;63208;52.178;21.016;2023-07-16T11:50:46;31.60;98.40
17033;DHT22;63208;52.178;21.016;2023-07-16T11:53:13;31.60;97.90
17033;DHT22;63208;52.178;21.016;2023-07-16T11:55:40;31.60;98.50
17033;DHT22;63208;52.178;21.016;2023-07-16T12:00:34;31.80;99.00
17033;DHT22;63208;52.178;21.016;2023-07-16T12:03:03;31.80;99.40
17033;DHT22;63208;52.178;21.016;2023-07-16T12:10:24;31.60;99.30
17033;DHT22;63208;52.178;21.016;2023-07-16T12:15:18;31.40;99.00
17033;DHT22;63208;52.178;21.016;2023-07-16T12:17:45;31.80;98.40
17033;DHT22;63208;52.178;21.016;2023-07-16T12:20:13;31.70;98.30
17033;DHT22;63208;52.178;21.016;2023-07-16T12:22:40;32.10;98.10
17033;DHT22;63208;52.178;21.016;2023-07-16T12:27:34;31.60;97.40
17033;DHT22;63208;52.178;21.016;2023-07-16T12:30:01;31.80;97.20
17033;DHT22;63208;52.178;21.016;2023-07-16T12:32:28;31.60;96.90
17033;DHT22;63208;52.178;21.016;2023-07-16T12:34:55;31.70;96.90
17033;DHT22;63208;52.178;21.016;2023-07-16T12:39:52;32.10;96.00
17033;DHT22;63208;52.178;21.016;2023-07-16T12:42:19;32.40;96.70
17033;DHT22;63208;52.178;21.016;2023-07-16T12:44:45;32.40;95.20
17033;DHT22;63208;52.178;21.016;2023-07-16T12:47:12;32.40;95.40
17033;DHT22;63208;52.178;21.016;2023-07-16T12:49:39;32.30;94.70
17033;DHT22;63208;52.178;21.016;2023-07-16T12:52:07;32.60;94.10
17033;DHT22;63208;52.178;21.016;2023-07-16T12:54:35;32.50;94.00
17033;DHT22;63208;52.178;21.016;2023-07-16T13:01:58;33.00;92.00
17033;DHT22;63208;52.178;21.016;2023-07-16T13:04:25;32.90;92.30
17033;DHT22;63208;52.178;21.016;2023-07-16T13:06:52;32.90;92.30
17033;DHT22;63208;52.178;21.016;2023-07-16T13:11:47;33.20;91.40
17033;DHT22;63208;52.178;21.016;2023-07-16T13:14:14;33.30;90.60
17033;DHT22;63208;52.178;21.016;2023-07-16T13:24:04;33.40;89.80
17033;DHT22;63208;52.178;21.016;2023-07-16T13:26:31;33.60;87.70
17033;DHT22;63208;52.178;21.016;2023-07-16T13:28:59;33.60;87.60
17033;DHT22;63208;52.178;21.016;2023-07-16T13:31:26;34.20;86.00
17033;DHT22;63208;52.178;21.016;2023-07-16T13:53:58;35.70;75.80
17033;DHT22;63208;52.178;21.016;2023-07-16T13:58:52;36.00;74.90
17033;DHT22;63208;52.178;21.016;2023-07-16T14:03:46;35.60;73.00
17033;DHT22;63208;52.178;21.016;2023-07-16T14:11:21;35.10;73.90
17033;DHT22;63208;52.178;21.016;2023-07-16T14:13:48;35.60;75.70
17033;DHT22;63208;52.178;21.016;2023-07-16T14:16:16;36.00;74.50
17033;DHT22;63208;52.178;21.016;2023-07-16T14:26:06;32.30;79.00
17033;DHT22;63208;52.178;21.016;2023-07-16T14:28:33;32.00;80.60
17033;DHT22;63208;52.178;21.016;2023-07-16T14:33:27;32.00;80.90
17033;DHT22;63208;52.178;21.016;2023-07-16T14:38:21;31.40;82.30
17033;DHT22;63208;52.178;21.016;2023-07-16T14:40:49;31.30;83.50
17033;DHT22;63208;52.178;21.016;2023-07-16T14:43:17;31.30;84.30
17033;DHT22;63208;52.178;21.016;2023-07-16T14:45:44;31.40;84.40
17033;DHT22;63208;52.178;21.016;2023-07-16T14:51:03;31.40;82.90
17033;DHT22;63208;52.178;21.016;2023-07-16T14:53:31;31.30;84.70
17033;DHT22;63208;52.178;21.016;2023-07-16T14:55:59;31.20;83.30
17033;DHT22;63208;52.178;21.016;2023-07-16T15:10:45;30.60;86.70
17033;DHT22;63208;52.178;21.016;2023-07-16T15:15:56;30.50;86.90
17033;DHT22;63208;52.178;21.016;2023-07-16T15:18:24;30.90;88.10
17033;DHT22;63208;52.178;21.016;2023-07-16T15:20:56;30.50;87.90
17033;DHT22;63208;52.178;21.016;2023-07-16T15:23:29;30.50;87.50
17033;DHT22;63208;52.178;21.016;2023-07-16T15:26:03;30.40;87.20
17033;DHT22;63208;52.178;21.016;2023-07-16T15:28:32;30.40;87.90
17033;DHT22;63208;52.178;21.016;2023-07-16T15:30:59;30.30;87.80
17033;DHT22;63208;52.178;21.016;2023-07-16T15:33:26;30.20;88.80
17033;DHT22;63208;52.178;21.016;2023-07-16T15:35:53;30.10;89.20
17033;DHT22;63208;52.178;21.016;2023-07-16T15:38:20;30.10;89.80
17033;DHT22;63208;52.178;21.016;2023-07-16T15:40:47;30.00;90.00
17033;DHT22;63208;52.178;21.016;2023-07-16T15:45:43;30.00;90.00
17033;DHT22;63208;52.178;21.016;2023-07-16T15:58:36;29.80;90.30
17033;DHT22;63208;52.178;21.016;2023-07-16T16:03:33;29.80;90.00
17033;DHT22;63208;52.178;21.016;2023-07-16T16:06:00;29.70;90.50
17033;DHT22;63208;52.178;21.016;2023-07-16T16:08:27;29.70;90.20
17033;DHT22;63208;52.178;21.016;2023-07-16T16:10:54;29.70;90.50
17033;DHT22;63208;52.178;21.016;2023-07-16T16:13:23;29.80;90.00
17033;DHT22;63208;52.178;21.016;2023-07-16T16:15:50;29.70;90.00
17033;DHT22;63208;52.178;21.016;2023-07-16T16:18:18;29.70;90.00
17033;DHT22;63208;52.178;21.016;2023-07-16T16:20:47;29.70;90.30
17033;DHT22;63208;52.178;21.016;2023-07-16T16:23:14;29.80;90.60
17033;DHT22;63208;52.178;21.016;2023-07-16T16:25:41;29.80;90.20
17033;DHT22;63208;52.178;21.016;2023-07-16T16:33:04;29.70;90.50
17033;DHT22;63208;52.178;21.016;2023-07-16T16:35:36;29.70;90.50
17033;DHT22;63208;52.178;21.016;2023-07-16T16:38:04;29.80;90.30
17033;DHT22;63208;52.178;21.016;2023-07-16T16:40:31;29.70;90.30
17033;DHT22;63208;52.178;21.016;2023-07-16T16:42:59;29.70;90.70
17033;DHT22;63208;52.178;21.016;2023-07-16T16:45:26;29.70;91.00
17033;DHT22;63208;52.178;21.016;2023-07-16T16:47:53;29.70;92.50
17033;DHT22;63208;52.178;21.016;2023-07-16T16:50:20;29.70;91.20
17033;DHT22;63208;52.178;21.016;2023-07-16T16:52:48;29.70;92.80
17033;DHT22;63208;52.178;21.016;2023-07-16T16:55:17;29.50;91.40
17033;DHT22;63208;52.178;21.016;2023-07-16T16:57:44;29.50;91.30
17033;DHT22;63208;52.178;21.016;2023-07-16T17:00:11;29.40;91.50
17033;DHT22;63208;52.178;21.016;2023-07-16T17:02:39;29.40;91.80
17033;DHT22;63208;52.178;21.016;2023-07-16T17:05:07;29.30;91.50
17033;DHT22;63208;52.178;21.016;2023-07-16T17:10:10;29.30;91.90
17033;DHT22;63208;52.178;21.016;2023-07-16T17:24:04;29.30;92.20
17033;DHT22;63208;52.178;21.016;2023-07-16T17:26:32;29.20;92.00
17033;DHT22;63208;52.178;21.016;2023-07-16T17:28:59;29.20;92.40
17033;DHT22;63208;52.178;21.016;2023-07-16T17:31:26;29.10;92.60
17033;DHT22;63208;52.178;21.016;2023-07-16T17:33:53;29.10;92.80
17033;DHT22;63208;52.178;21.016;2023-07-16T17:36:20;29.00;92.70
17033;DHT22;63208;52.178;21.016;2023-07-16T17:38:48;29.00;93.10
17033;DHT22;63208;52.178;21.016;2023-07-16T17:44:38;29.00;93.40
17033;DHT22;63208;52.178;21.016;2023-07-16T17:47:05;29.00;93.60
17033;DHT22;63208;52.178;21.016;2023-07-16T17:49:32;28.90;93.60
17033;DHT22;63208;52.178;21.016;2023-07-16T17:51:59;28.90;93.40
17033;DHT22;63208;52.178;21.016;2023-07-16T17:54:26;28.90;93.70
17033;DHT22;63208;52.178;21.016;2023-07-16T17:56:53;29.00;93.80
17033;DHT22;63208;52.178;21.016;2023-07-16T17:59:21;28.90;93.80
17033;DHT22;63208;52.178;21.016;2023-07-16T18:01:50;29.00;93.90
17033;DHT22;63208;52.178;21.016;2023-07-16T18:04:17;28.90;94.10
17033;DHT22;63208;52.178;21.016;2023-07-16T18:06:44;28.90;93.90
17033;DHT22;63208;52.178;21.016;2023-07-16T18:09:11;28.90;94.20
17033;DHT22;63208;52.178;21.016;2023-07-16T18:11:39;28.80;94.30
17033;DHT22;63208;52.178;21.016;2023-07-16T18:16:38;28.70;94.10
17033;DHT22;63208;52.178;21.016;2023-07-16T18:19:09;28.60;94.70
17033;DHT22;63208;52.178;21.016;2023-07-16T18:21:38;28.60;95.00
17033;DHT22;63208;52.178;21.016;2023-07-16T18:24:05;28.50;94.90
17033;DHT22;63208;52.178;21.016;2023-07-16T18:26:35;28.40;95.10
17033;DHT22;63208;52.178;21.016;2023-07-16T18:29:03;28.40;95.50
17033;DHT22;63208;52.178;21.016;2023-07-16T18:31:32;28.40;95.60
17033;DHT22;63208;52.178;21.016;2023-07-16T18:33:59;28.40;95.90
17033;DHT22;63208;52.178;21.016;2023-07-16T18:36:27;28.40;96.00
17033;DHT22;63208;52.178;21.016;2023-07-16T18:38:54;28.20;96.30
17033;DHT22;63208;52.178;21.016;2023-07-16T18:44:44;28.20;96.70
17033;DHT22;63208;52.178;21.016;2023-07-16T18:47:11;28.10;96.90
17033;DHT22;63208;52.178;21.016;2023-07-16T18:49:38;28.10;97.40
17033;DHT22;63208;52.178;21.016;2023-07-16T18:52:07;28.10;97.60
17033;DHT22;63208;52.178;21.016;2023-07-16T19:06:04;27.80;99.10
17033;DHT22;63208;52.178;21.016;2023-07-16T19:08:33;27.70;99.20
17033;DHT22;63208;52.178;21.016;2023-07-16T19:11:02;27.70;99.60
17033;DHT22;63208;52.178;21.016;2023-07-16T19:13:36;27.60;99.60
17033;DHT22;63208;52.178;21.016;2023-07-16T19:18:32;27.60;99.90
17033;DHT22;63208;52.178;21.016;2023-07-16T19:21:02;27.60;99.90
17033;DHT22;63208;52.178;21.016;2023-07-16T19:23:29;27.50;99.90
17033;DHT22;63208;52.178;21.016;2023-07-16T19:26:03;27.40;99.90
17033;DHT22;63208;52.178;21.016;2023-07-16T19:28:30;26.90;99.90
17033;DHT22;63208;52.178;21.016;2023-07-16T19:30:59;27.40;99.90
17033;DHT22;63208;52.178;21.016;2023-07-16T19:33:27;27.30;99.90
17033;DHT22;63208;52.178;21.016;2023-07-16T19:35:58;27.20;99.90
17033;DHT22;63208;52.178;21.016;2023-07-16T19:38:27;27.20;99.90
17033;DHT22;63208;52.178;21.016;2023-07-16T19:40:54;27.20;99.90
17033;DHT22;63208;52.178;21.016;2023-07-16T19:43:24;27.10;99.90
17033;DHT22;63208;52.178;21.016;2023-07-16T19:45:59;27.10;99.90
17033;DHT22;63208;52.178;21.016;2023-07-16T19:48:27;27.00;99.90
17033;DHT22;63208;52.178;21.016;2023-07-16T19:50:54;27.10;99.90
17033;DHT22;63208;52.178;21.016;2023-07-16T19:53:22;27.00;99.90
17033;DHT22;63208;52.178;21.016;2023-07-16T19:55:49;26.70;99.90
17033;DHT22;63208;52.178;21.016;2023-07-16T19:58:19;27.00;99.90